Airfield :
LOGIN :

Register | Disclaimer

   EN    FR    IT 

 










Legend :    VFR   Marginal VFR   IFR   Intensive IFR   Very Intensive IFR
Visi :
Ceiling :
>= 8 km
>= 3000ft
5 to 8 km
1000 to 3000 ft
1500m to 5 km
500 to 1000 ft
800 to 1500m
200 to 500 ft
< 800m
< 200 ft
Symbols :   Thunderstorms  Fog  Heavy snow  Heavy precipitations  Wind > 20 kt
SIGMETs :     Misc.  Thunderstorms  Icing  Turbulence  Mountain Waves  Volcanic Ashes







- Airport Elevation : 1674 ft
- IATA code : BRN


LSZB - Bern Belp

CURRENT METAR :
  • 172150Z AUTO 09007KT 9999 SCT120 18/14 Q1014

EXPIRED METARs :
  • 172120Z AUTO 09007KT 9999 FEW100 SCT120 BKN140 19/14 Q1014
  • 172050Z AUTO 08006KT 9999 BKN120 BKN140 20/14 Q1014
  • 172020Z AUTO 10006KT 9999 BKN120 SCT140 20/14 Q1014
  • 171950Z AUTO 10006KT 9999 FEW090 OVC110 BKN130 21/14 Q1014

TAF TAF LSZB
Valid from the 17 at 15:00 until the 18 at 00:00 UTC


171425Z 1715/1724 VRB03KT 9999 SCT120 BKN160
BECMG 1721/1724 CAVOK
ATIS : +41 22 417 40 76
No reported NOTAMs for that airfield.



MET'MAP, your aeronautical weather chart ! - Copyright ORBIFLY December 2007 - Disclaimer

ORBIFLY MET'MAP TEAM :

Programming & Development : Alexandra Zaïnal
Concept & Development : Baudouin d'Aumeries
Co-Development & Prog : Marc-Olivier Méhu
Technical & hardware support : Manuel Goepfert

Contact : metmap@orbifly.com




SOURCES & CREDITS :

   NOAA